Архив погоды в Нерчинском Заводе

Метеограмма Нерчинский Завод
Среда, 15 Августа
Время местн. Темп Ветер Видим Явления Облачность нижн/средн/верх Атм. давл. Влжн Точка росы ВНГО R Сост. почвы Tg s
Напр Скр Прв ур.ст ур.м изм
05:00 +12.6° штиль 0 - 50 км - переменная облачность 710 764 +0.9 95% +11.8° - - - - -
02:00 +13.9° В 1 - - - ясно 709 763 +1 93% +12.8° более 2.5 км - - - -
Вторник, 14 Августа
Время местн. Темп Ветер Видим Явления Облачность нижн/средн/верх Атм. давл. Влжн Точка росы ВНГО R Сост. почвы Tg s
Напр Скр Прв ур.ст ур.м изм
23:00 +15.8° штиль 0 - - - ясно 708 762 +1.1 88% +13.9° более 2.5 км - - - -
20:00 +18.2° штиль 0 - 50 км - ясно 707 760 +1.1 84% +15.4° более 2.5 км 0 - - -
17:00 +28.1° штиль 0 - 50 км - незначительная облачность 706 757 -0.2 36% +11.5° 1.5 км - - - -
14:00 +27.6° Ю-В 1 - 50 км - незначительная облачность 706 757 -0.2 35% +10.6° 1.5 км - - - -
11:00 +24.7° Ю 1 - 50 км - ясно 707 758 +0.2 53% +14.6° более 2.5 км - - - -
08:00 +19.6° штиль 0 - 50 км - ясно 706 759 +0.6 72% +14.5° более 2.5 км 0 Влажная (без луж) - -
05:00 +11.4° штиль 0 - 50 км - ясно 706 760 +0.5 95% +10.7° более 2.5 км - - - -
02:00 +12.5° З,С-З 1 - - - ясно 705 759 +0.2 93% +11.4° более 2.5 км - - - -
Понедельник, 13 Августа
Время местн. Темп Ветер Видим Явления Облачность нижн/средн/верх Атм. давл. Влжн Точка росы ВНГО R Сост. почвы Tg s
Напр Скр Прв ур.ст ур.м изм
23:00 +14.4° штиль 0 - - - ясно 705 758 +0.8 88% +12.5° более 2.5 км - - - -
20:00 +19.7° Ю 1 - 50 км - облачно 704 756 +0.8 73% +14.8° 1.5 км 0 - - -
17:00 +24.7° штиль 0 - 50 км - преимущественно облачно 704 754 -0.2 66% +17.9° 1.5 км - - - -
14:00 +27.7° З,С-З 1 - 50 км - облачно с прояснениями 704 754 -0.8 34% +10.6° 1 км - - - -
11:00 +24.7° В 1 - 50 км - переменная облачность 705 756 -0.5 49% +13.4° более 2.5 км - - - -
08:00 +16.4° В 2 - 50 км - переменная облачность 705 758 +0.2 84% +13.7° более 2.5 км 0 Влажная (без луж) - -
05:00 +10.1° Ю,Ю-В 1 - 50 км - незначительная облачность 705 759 -0.2 95% +9.4° более 2.5 км - - - -
02:00 +11.2° штиль 0 - - - ясно 705 759 -0.1 94% +10.3° более 2.5 км - - - -
Воскресенье, 12 Августа
Время местн. Темп Ветер Видим Явления Облачность нижн/средн/верх Атм. давл. Влжн Точка росы ВНГО R Сост. почвы Tg s
Напр Скр Прв ур.ст ур.м изм
23:00 +13.2° штиль 0 - - - ясно 705 758 +0.7 91% +11.7° более 2.5 км - - - -
20:00 +16.3° штиль 0 - 50 км - ясно 704 757 +0.5 85% +13.8° более 2.5 км 0 - - -
17:00 +25.2° Ю-З 1 - 50 км - ясно 704 755 -0.9 44% +12° более 2.5 км - - - -
14:00 +25.7° Ю 2 - 50 км - переменная облачность 704 755 -0.9 41% +11.6° более 2.5 км - - - -
11:00 +24° З 1 - 50 км - переменная облачность 705 756 -0.5 53% +13.9° более 2.5 км - - - -
08:00 +16.2° В 2 - 50 км - ясно 705 758 0 81% +13° более 2.5 км 0 Влажная (без луж) - -
05:00 +9.5° штиль 0 - 50 км - ясно 705 760 +0.1 95% +8.8° более 2.5 км - - - -
02:00 +10.3° штиль 0 - - - ясно 705 759 +0.3 94% +9.4° более 2.5 км - - - -